| time (UTC) | temp F | wind direction | speed MPH | gust MPH | rain 1hr in | rain 24hr in | rain mn in | humidity % | barometer mb |
| 20260906044533 | 74 | 144 | 3.0 | 9.0 | 0.00 | 0.00 | 0.00 | 87 | 1016.4 |
| 20260906043012 | 74 | 157 | 4.0 | 7.0 | 0.00 | 0.00 | 0.00 | 87 | 1016.4 |
| 20260906041516 | 74 | 160 | 3.0 | 8.0 | 0.00 | 0.00 | 0.00 | 87 | 1016.2 |
| 20260906040032 | 74 | 176 | 1.0 | 7.0 | 0.00 | 0.00 | 0.00 | 88 | 1016.2 |
| 20260906034527 | 75 | 211 | 2.0 | 7.0 | 0.00 | 0.00 | 0.00 | 87 | 1016.1 |
| 20260906033028 | 75 | 155 | 1.0 | 8.0 | 0.00 | 0.00 | 0.00 | 87 | 1016.1 |
| 20260906031531 | 75 | 164 | 3.0 | 9.0 | 0.00 | 0.00 | 0.00 | 87 | 1016.0 |
| 20260906030020 | 76 | 249 | 4.0 | 10.0 | 0.00 | 0.00 | 0.00 | 85 | 1015.9 |
| 20260906024528 | 76 | 211 | 3.0 | 12.0 | 0.00 | 0.00 | 0.00 | 84 | 1015.8 |
| 20260906023031 | 76 | 234 | 3.0 | 11.0 | 0.00 | 0.00 | 0.00 | 83 | 1015.6 |
| 20260906021530 | 77 | 148 | 3.0 | 7.0 | 0.00 | 0.00 | 0.00 | 84 | 1015.5 |
| 20260906020021 | 77 | 182 | 3.0 | 9.0 | 0.00 | 0.00 | 0.00 | 83 | 1015.5 |
| 20260906014529 | 77 | 249 | 3.0 | 9.0 | 0.00 | 0.00 | 0.00 | 82 | 1015.3 |
| 20260906013028 | 78 | 148 | 1.0 | 3.0 | 0.00 | 0.00 | 0.00 | 78 | 1014.7 |
| 20260906011531 | 77 | 157 | 2.0 | 6.0 | 0.00 | 0.00 | 0.00 | 76 | 1014.5 |
| 20260906010013 | 78 | 156 | 1.0 | 3.0 | 0.00 | 0.00 | 0.00 | 74 | 1014.3 |
| 20260906004517 | 78 | 154 | 1.0 | 3.0 | 0.00 | 0.00 | 0.00 | 73 | 1014.3 |
| 20260906003028 | 79 | 150 | 1.0 | 1.0 | 0.00 | 0.00 | 0.00 | 72 | 1013.9 |
| 20260906001533 | 79 | 150 | 1.0 | 4.0 | 0.00 | 0.00 | 0.00 | 71 | 1013.8 |
| 20260906000030 | 80 | 150 | 1.0 | 4.0 | 0.00 | 0.00 | 0.00 | 70 | 1013.8 |
| 20260905234516 | 80 | 152 | 1.0 | 4.0 | 0.00 | 0.00 | 0.00 | 69 | 1013.9 |
| 20260905233030 | 80 | 149 | 1.0 | 8.0 | 0.00 | 0.00 | 0.00 | 69 | 1014.0 |
| 20260905231526 | 81 | 143 | 3.0 | 7.0 | 0.00 | 0.00 | 0.00 | 71 | 1014.1 |
| 20260905230030 | 82 | 171 | 4.0 | 11.0 | 0.00 | 0.00 | 0.00 | 70 | 1014.3 |
| 20260905224531 | 84 | 224 | 5.0 | 11.0 | 0.00 | 0.00 | 0.00 | 68 | 1014.0 |
| 20260905223031 | 88 | 195 | 3.0 | 7.0 | 0.00 | 0.00 | 0.00 | 64 | 1013.4 |
| 20260905221510 | 88 | 135 | 2.0 | 9.0 | 0.00 | 0.00 | 0.00 | 64 | 1013.2 |
| 20260905220007 | 88 | 143 | 3.0 | 7.0 | 0.00 | 0.00 | 0.00 | 65 | 1013.3 |
| 20260905214513 | 88 | 132 | 1.0 | 1.0 | 0.00 | 0.00 | 0.00 | 67 | 1013.3 |
| 20260905213016 | 88 | 132 | 0.0 | 2.0 | 0.00 | 0.00 | 0.00 | 65 | 1013.5 |
| 20260905211539 | 88 | 137 | 0.0 | 4.0 | 0.00 | 0.00 | 0.00 | 64 | 1013.2 |
| 20260905210005 | 89 | 136 | 1.0 | 2.0 | 0.00 | 0.00 | 0.00 | 61 | 1013.5 |
| 20260905204506 | 89 | 123 | 0.0 | 5.0 | 0.00 | 0.00 | 0.00 | 62 | 1013.8 |
| 20260905203012 | 90 | 143 | 3.0 | 7.0 | 0.00 | 0.00 | 0.00 | 58 | 1013.7 |
| 20260905201517 | 91 | 126 | 3.0 | 8.0 | 0.00 | 0.00 | 0.00 | 56 | 1013.9 |
| 20260905200030 | 92 | 129 | 1.0 | 4.0 | 0.00 | 0.00 | 0.00 | 56 | 1014.0 |
| 20260905194504 | 92 | 127 | 1.0 | 3.0 | 0.00 | 0.00 | 0.00 | 56 | 1014.1 |
| 20260905193010 | 92 | 132 | 0.0 | 2.0 | 0.00 | 0.00 | 0.00 | 55 | 1014.2 |
| 20260905191516 | 92 | 120 | 0.0 | 3.0 | 0.00 | 0.00 | 0.00 | 55 | 1014.3 |
| 20260905190025 | 92 | 120 | 2.0 | 4.0 | 0.00 | 0.00 | 0.00 | 54 | 1014.6 |
| 20260905184533 | 91 | 106 | 1.0 | 4.0 | 0.00 | 0.00 | 0.00 | 55 | 1014.7 |
| 20260905183006 | 91 | 119 | 1.0 | 3.0 | 0.00 | 0.00 | 0.00 | 53 | 1015.1 |
| 20260905181512 | 90 | 147 | 1.0 | 4.0 | 0.00 | 0.00 | 0.00 | 55 | 1015.2 |
| 20260905180017 | 90 | 138 | 1.0 | 2.0 | 0.00 | 0.00 | 0.00 | 54 | 1015.2 |
| 20260905174524 | 89 | 116 | 1.0 | 6.0 | 0.00 | 0.00 | 0.00 | 55 | 1015.3 |
| 20260905173032 | 88 | 130 | 1.0 | 5.0 | 0.00 | 0.00 | 0.00 | 57 | 1015.3 |
| 20260905171523 | 87 | 77 | 2.0 | 4.0 | 0.00 | 0.00 | 0.00 | 58 | 1015.7 |
| 20260905170014 | 85 | 91 | 2.0 | 5.0 | 0.00 | 0.00 | 0.00 | 60 | 1015.8 |
| 20260905164520 | 84 | 111 | 1.0 | 4.0 | 0.00 | 0.00 | 0.00 | 61 | 1016.3 |
| 20260905163027 | 83 | 93 | 2.0 | 4.0 | 0.00 | 0.00 | 0.00 | 62 | 1016.5 |
| 20260905161505 | 81 | 105 | 1.0 | 2.0 | 0.00 | 0.00 | 0.00 | 65 | 1016.6 |
| 20260905160024 | 81 | 131 | 0.0 | 3.0 | 0.00 | 0.00 | 0.00 | 66 | 1016.6 |
| 20260905154540 | 83 | 111 | 1.0 | 4.0 | 0.00 | 0.00 | 0.00 | 63 | 1016.5 |
| 20260905153027 | 81 | 51 | 3.0 | 5.0 | 0.00 | 0.00 | 0.00 | 64 | 1016.4 |
| 20260905151505 | 80 | 41 | 1.0 | 5.0 | 0.00 | 0.00 | 0.00 | 67 | 1016.6 |
| 20260905150006 | 79 | 136 | 1.0 | 8.0 | 0.00 | 0.00 | 0.00 | 69 | 1016.4 |
| 20260905144512 | 78 | 105 | 3.0 | 6.0 | 0.00 | 0.00 | 0.00 | 70 | 1016.5 |
| 20260905143018 | 77 | 56 | 5.0 | 9.0 | 0.00 | 0.00 | 0.00 | 71 | 1016.6 |
| 20260905141525 | 77 | 128 | 2.0 | 9.0 | 0.00 | 0.00 | 0.00 | 72 | 1016.8 |
| 20260905140005 | 76 | 123 | 2.0 | 8.0 | 0.00 | 0.00 | 0.00 | 73 | 1016.9 |
| 20260905134510 | 76 | 184 | 2.0 | 8.0 | 0.00 | 0.00 | 0.00 | 73 | 1017.1 |
| 20260905133016 | 75 | 11 | 2.0 | 6.0 | 0.00 | 0.00 | 0.00 | 75 | 1017.1 |
| 20260905131523 | 74 | 155 | 1.0 | 8.0 | 0.00 | 0.00 | 0.00 | 76 | 1017.2 |
| 20260905130029 | 74 | 81 | 3.0 | 8.0 | 0.00 | 0.00 | 0.00 | 77 | 1017.1 |
| 20260905124508 | 73 | 34 | 2.0 | 7.0 | 0.00 | 0.00 | 0.00 | 77 | 1016.8 |
| 20260905123014 | 73 | 77 | 1.0 | 4.0 | 0.00 | 0.00 | 0.00 | 78 | 1016.8 |
| 20260905121519 | 72 | 76 | 1.0 | 6.0 | 0.00 | 0.00 | 0.00 | 80 | 1016.7 |
| 20260905120031 | 71 | 94 | 1.0 | 8.0 | 0.00 | 0.00 | 0.00 | 82 | 1016.7 |
| 20260905114529 | 71 | 155 | 1.0 | 7.0 | 0.00 | 0.00 | 0.00 | 82 | 1016.8 |
| 20260905113010 | 71 | 107 | 2.0 | 8.0 | 0.00 | 0.00 | 0.00 | 81 | 1016.7 |
| 20260905111518 | 71 | 56 | 1.0 | 11.0 | 0.00 | 0.00 | 0.00 | 82 | 1016.6 |
| 20260905110022 | 72 | 83 | 3.0 | 8.0 | 0.00 | 0.00 | 0.00 | 81 | 1016.6 |
| 20260905104540 | 72 | 210 | 2.0 | 14.0 | 0.00 | 0.00 | 0.00 | 79 | 1016.6 |
| 20260905103009 | 74 | 250 | 6.0 | 16.0 | 0.00 | 0.00 | 0.00 | 80 | 1016.6 |
| 20260905101512 | 74 | 270 | 1.0 | 10.0 | 0.00 | 0.00 | 0.00 | 91 | 1016.1 |
| 20260905100021 | 74 | 131 | 0.0 | 0.0 | 0.00 | 0.00 | 0.00 | 91 | 1015.4 |
| 20260905094525 | 74 | 131 | 0.0 | 0.0 | 0.00 | 0.00 | 0.00 | 91 | 1015.4 |
| 20260905093028 | 74 | 131 | 0.0 | 0.0 | 0.00 | 0.00 | 0.00 | 91 | 1015.3 |
| 20260905091512 | 74 | 131 | 0.0 | 0.0 | 0.00 | 0.00 | 0.00 | 91 | 1015.3 |
| 20260905090019 | 75 | 131 | 0.0 | 0.0 | 0.00 | 0.00 | 0.00 | 91 | 1015.2 |
| 20260905084530 | 75 | 131 | 0.0 | 0.0 | 0.00 | 0.00 | 0.00 | 90 | 1015.3 |
| 20260905083025 | 75 | 131 | 0.0 | 0.0 | 0.00 | 0.00 | 0.00 | 90 | 1015.2 |
| 20260905081530 | 75 | 131 | 0.0 | 0.0 | 0.00 | 0.00 | 0.00 | 89 | 1015.1 |
| 20260905080022 | 76 | 131 | 0.0 | 0.0 | 0.00 | 0.00 | 0.00 | 88 | 1015.1 |
| 20260905074519 | 76 | 131 | 0.0 | 0.0 | 0.00 | 0.00 | 0.00 | 88 | 1014.8 |
| 20260905073038 | 75 | 131 | 0.0 | 0.0 | 0.00 | 0.00 | 0.00 | 89 | 1014.3 |
| 20260905071504 | 76 | 131 | 0.0 | 0.0 | 0.00 | 0.00 | 0.00 | 88 | 1014.4 |
| 20260905070008 | 76 | 131 | 0.0 | 0.0 | 0.00 | 0.00 | 0.00 | 87 | 1014.4 |
| 20260905064517 | 76 | 131 | 0.0 | 0.0 | 0.00 | 0.00 | 0.00 | 86 | 1014.6 |
| 20260905063023 | 77 | 131 | 0.0 | 0.0 | 0.00 | 0.00 | 0.00 | 86 | 1014.8 |
| 20260905061538 | 77 | 122 | 0.0 | 0.0 | 0.00 | 0.00 | 0.00 | 85 | 1015.1 |
| 20260905060007 | 77 | 122 | 0.0 | 0.0 | 0.00 | 0.00 | 0.00 | 84 | 1015.2 |
| 20260905054512 | 77 | 124 | 0.0 | 0.0 | 0.00 | 0.00 | 0.00 | 84 | 1015.3 |
| 20260905053022 | 77 | 135 | 0.0 | 0.0 | 0.00 | 0.00 | 0.00 | 84 | 1015.6 |
| 20260905051538 | 77 | 135 | 0.0 | 0.0 | 0.00 | 0.00 | 0.00 | 85 | 1015.7 |
| 20260905050030 | 77 | 135 | 0.0 | 0.0 | 0.00 | 0.00 | 0.00 | 85 | 1015.7 |